sensor_id;sensor_type;location;lat;lon;timestamp;P1;durP1;ratioP1;P2;durP2;ratioP2
44862;SDS011;30597;49.628;10.850;2022-08-24T00:02:13;2.70;;;1.90;;
44862;SDS011;30597;49.628;10.850;2022-08-24T00:04:38;2.17;;;2.00;;
44862;SDS011;30597;49.628;10.850;2022-08-24T00:07:05;1.93;;;1.83;;
44862;SDS011;30597;49.628;10.850;2022-08-24T00:09:31;2.23;;;1.80;;
44862;SDS011;30597;49.628;10.850;2022-08-24T00:11:57;1.97;;;1.77;;
44862;SDS011;30597;49.628;10.850;2022-08-24T00:14:23;1.80;;;1.70;;
44862;SDS011;30597;49.628;10.850;2022-08-24T00:16:49;1.90;;;1.80;;
44862;SDS011;30597;49.628;10.850;2022-08-24T00:19:14;1.73;;;1.60;;
44862;SDS011;30597;49.628;10.850;2022-08-24T00:21:40;2.23;;;2.00;;
44862;SDS011;30597;49.628;10.850;2022-08-24T00:24:06;2.30;;;2.10;;
44862;SDS011;30597;49.628;10.850;2022-08-24T00:26:32;2.03;;;1.40;;
44862;SDS011;30597;49.628;10.850;2022-08-24T00:28:59;2.00;;;1.90;;
44862;SDS011;30597;49.628;10.850;2022-08-24T00:31:25;1.77;;;1.40;;
44862;SDS011;30597;49.628;10.850;2022-08-24T00:33:50;1.77;;;1.67;;
44862;SDS011;30597;49.628;10.850;2022-08-24T00:36:16;2.00;;;1.83;;
44862;SDS011;30597;49.628;10.850;2022-08-24T00:38:41;1.77;;;1.63;;
44862;SDS011;30597;49.628;10.850;2022-08-24T00:41:08;1.80;;;1.70;;
44862;SDS011;30597;49.628;10.850;2022-08-24T00:43:33;2.30;;;1.93;;
44862;SDS011;30597;49.628;10.850;2022-08-24T00:46:12;1.60;;;1.50;;
44862;SDS011;30597;49.628;10.850;2022-08-24T00:48:50;1.67;;;1.57;;
44862;SDS011;30597;49.628;10.850;2022-08-24T00:51:24;2.23;;;1.90;;
44862;SDS011;30597;49.628;10.850;2022-08-24T00:53:55;2.00;;;1.90;;
44862;SDS011;30597;49.628;10.850;2022-08-24T00:56:30;1.60;;;1.50;;
44862;SDS011;30597;49.628;10.850;2022-08-24T00:59:00;1.63;;;1.53;;
44862;SDS011;30597;49.628;10.850;2022-08-24T01:01:29;1.87;;;1.77;;
44862;SDS011;30597;49.628;10.850;2022-08-24T01:03:56;1.80;;;1.70;;
44862;SDS011;30597;49.628;10.850;2022-08-24T01:06:23;2.20;;;1.70;;
44862;SDS011;30597;49.628;10.850;2022-08-24T01:08:49;9.53;;;1.93;;
44862;SDS011;30597;49.628;10.850;2022-08-24T01:11:17;1.70;;;1.60;;
44862;SDS011;30597;49.628;10.850;2022-08-24T01:13:46;1.70;;;1.60;;
44862;SDS011;30597;49.628;10.850;2022-08-24T01:16:14;1.67;;;1.57;;
44862;SDS011;30597;49.628;10.850;2022-08-24T01:19:00;2.37;;;2.23;;
44862;SDS011;30597;49.628;10.850;2022-08-24T01:21:30;1.60;;;1.50;;
44862;SDS011;30597;49.628;10.850;2022-08-24T01:24:02;1.90;;;1.80;;
44862;SDS011;30597;49.628;10.850;2022-08-24T01:26:45;2.03;;;1.80;;
44862;SDS011;30597;49.628;10.850;2022-08-24T01:29:13;2.50;;;2.20;;
44862;SDS011;30597;49.628;10.850;2022-08-24T01:31:44;1.60;;;1.50;;
44862;SDS011;30597;49.628;10.850;2022-08-24T01:34:10;2.10;;;1.93;;
44862;SDS011;30597;49.628;10.850;2022-08-24T01:36:41;2.70;;;1.97;;
44862;SDS011;30597;49.628;10.850;2022-08-24T01:39:20;1.93;;;1.73;;
44862;SDS011;30597;49.628;10.850;2022-08-24T01:41:49;1.80;;;1.60;;
44862;SDS011;30597;49.628;10.850;2022-08-24T01:44:14;1.80;;;1.70;;
44862;SDS011;30597;49.628;10.850;2022-08-24T01:46:45;1.83;;;1.73;;
44862;SDS011;30597;49.628;10.850;2022-08-24T01:49:13;1.60;;;1.50;;
44862;SDS011;30597;49.628;10.850;2022-08-24T01:51:39;1.87;;;1.77;;
44862;SDS011;30597;49.628;10.850;2022-08-24T01:54:06;1.60;;;1.50;;
44862;SDS011;30597;49.628;10.850;2022-08-24T01:56:32;1.70;;;1.60;;
44862;SDS011;30597;49.628;10.850;2022-08-24T01:58:59;1.90;;;1.73;;
44862;SDS011;30597;49.628;10.850;2022-08-24T02:01:26;1.60;;;1.50;;
44862;SDS011;30597;49.628;10.850;2022-08-24T02:03:54;2.07;;;1.97;;
44862;SDS011;30597;49.628;10.850;2022-08-24T02:06:22;1.63;;;1.53;;
44862;SDS011;30597;49.628;10.850;2022-08-24T02:08:48;1.60;;;1.50;;
44862;SDS011;30597;49.628;10.850;2022-08-24T02:11:13;1.50;;;1.40;;
44862;SDS011;30597;49.628;10.850;2022-08-24T02:13:39;2.53;;;1.77;;
44862;SDS011;30597;49.628;10.850;2022-08-24T02:16:06;1.43;;;1.33;;
44862;SDS011;30597;49.628;10.850;2022-08-24T02:18:33;1.50;;;1.40;;
44862;SDS011;30597;49.628;10.850;2022-08-24T02:21:01;1.67;;;1.57;;
44862;SDS011;30597;49.628;10.850;2022-08-24T02:23:27;1.50;;;1.40;;
44862;SDS011;30597;49.628;10.850;2022-08-24T02:25:53;1.97;;;1.80;;
44862;SDS011;30597;49.628;10.850;2022-08-24T02:28:20;1.83;;;1.57;;
44862;SDS011;30597;49.628;10.850;2022-08-24T02:30:46;1.60;;;1.50;;
44862;SDS011;30597;49.628;10.850;2022-08-24T02:33:11;1.80;;;1.70;;
44862;SDS011;30597;49.628;10.850;2022-08-24T02:35:38;1.93;;;1.77;;
44862;SDS011;30597;49.628;10.850;2022-08-24T02:38:05;2.13;;;1.97;;
44862;SDS011;30597;49.628;10.850;2022-08-24T02:40:30;1.70;;;1.60;;
44862;SDS011;30597;49.628;10.850;2022-08-24T02:42:56;2.03;;;1.80;;
44862;SDS011;30597;49.628;10.850;2022-08-24T02:45:22;2.20;;;2.00;;
44862;SDS011;30597;49.628;10.850;2022-08-24T02:47:48;1.73;;;1.63;;
44862;SDS011;30597;49.628;10.850;2022-08-24T02:50:14;1.57;;;1.47;;
44862;SDS011;30597;49.628;10.850;2022-08-24T02:52:41;1.73;;;1.60;;
44862;SDS011;30597;49.628;10.850;2022-08-24T02:55:09;1.80;;;1.70;;
44862;SDS011;30597;49.628;10.850;2022-08-24T02:57:39;1.80;;;1.70;;
44862;SDS011;30597;49.628;10.850;2022-08-24T03:00:07;1.87;;;1.70;;
44862;SDS011;30597;49.628;10.850;2022-08-24T03:02:35;1.50;;;1.40;;
44862;SDS011;30597;49.628;10.850;2022-08-24T03:05:01;3.03;;;1.90;;
44862;SDS011;30597;49.628;10.850;2022-08-24T03:07:27;1.60;;;1.50;;
44862;SDS011;30597;49.628;10.850;2022-08-24T03:09:52;1.60;;;1.50;;
44862;SDS011;30597;49.628;10.850;2022-08-24T03:12:18;1.80;;;1.70;;
44862;SDS011;30597;49.628;10.850;2022-08-24T03:14:44;1.60;;;1.50;;
44862;SDS011;30597;49.628;10.850;2022-08-24T03:17:09;1.60;;;1.50;;
44862;SDS011;30597;49.628;10.850;2022-08-24T03:19:36;1.50;;;1.40;;
44862;SDS011;30597;49.628;10.850;2022-08-24T03:22:02;1.53;;;1.40;;
44862;SDS011;30597;49.628;10.850;2022-08-24T03:24:28;2.40;;;2.10;;
44862;SDS011;30597;49.628;10.850;2022-08-24T03:26:53;2.10;;;1.77;;
44862;SDS011;30597;49.628;10.850;2022-08-24T03:29:19;1.70;;;1.60;;
44862;SDS011;30597;49.628;10.850;2022-08-24T03:31:45;2.00;;;1.67;;
44862;SDS011;30597;49.628;10.850;2022-08-24T03:34:12;1.97;;;1.83;;
44862;SDS011;30597;49.628;10.850;2022-08-24T03:36:38;1.60;;;1.50;;
44862;SDS011;30597;49.628;10.850;2022-08-24T03:39:05;2.20;;;2.00;;
44862;SDS011;30597;49.628;10.850;2022-08-24T03:41:31;1.77;;;1.67;;
44862;SDS011;30597;49.628;10.850;2022-08-24T03:43:57;1.63;;;1.53;;
44862;SDS011;30597;49.628;10.850;2022-08-24T03:46:24;1.70;;;1.60;;
44862;SDS011;30597;49.628;10.850;2022-08-24T03:48:53;2.20;;;1.50;;
44862;SDS011;30597;49.628;10.850;2022-08-24T03:51:21;1.40;;;1.30;;
44862;SDS011;30597;49.628;10.850;2022-08-24T03:53:50;1.60;;;1.33;;
44862;SDS011;30597;49.628;10.850;2022-08-24T03:56:16;1.80;;;1.70;;
44862;SDS011;30597;49.628;10.850;2022-08-24T03:58:42;1.60;;;1.50;;
44862;SDS011;30597;49.628;10.850;2022-08-24T04:01:08;2.80;;;2.00;;
44862;SDS011;30597;49.628;10.850;2022-08-24T04:03:36;1.37;;;1.27;;
44862;SDS011;30597;49.628;10.850;2022-08-24T04:06:03;1.80;;;1.70;;
44862;SDS011;30597;49.628;10.850;2022-08-24T04:08:30;1.87;;;1.77;;
44862;SDS011;30597;49.628;10.850;2022-08-24T04:10:56;1.83;;;1.73;;
44862;SDS011;30597;49.628;10.850;2022-08-24T04:13:22;1.50;;;1.40;;
44862;SDS011;30597;49.628;10.850;2022-08-24T04:15:49;1.90;;;1.80;;
44862;SDS011;30597;49.628;10.850;2022-08-24T04:18:16;1.73;;;1.60;;
44862;SDS011;30597;49.628;10.850;2022-08-24T04:20:42;2.60;;;1.87;;
44862;SDS011;30597;49.628;10.850;2022-08-24T04:23:09;4.80;;;4.10;;
44862;SDS011;30597;49.628;10.850;2022-08-24T04:25:42;6.33;;;4.83;;
44862;SDS011;30597;49.628;10.850;2022-08-24T04:28:11;5.93;;;4.87;;
44862;SDS011;30597;49.628;10.850;2022-08-24T04:30:41;6.40;;;4.77;;
44862;SDS011;30597;49.628;10.850;2022-08-24T04:33:09;6.60;;;5.23;;
44862;SDS011;30597;49.628;10.850;2022-08-24T04:35:37;5.47;;;4.97;;
44862;SDS011;30597;49.628;10.850;2022-08-24T04:38:06;5.67;;;5.27;;
44862;SDS011;30597;49.628;10.850;2022-08-24T04:40:33;5.00;;;4.60;;
44862;SDS011;30597;49.628;10.850;2022-08-24T04:42:59;4.80;;;4.40;;
44862;SDS011;30597;49.628;10.850;2022-08-24T04:45:26;5.13;;;4.63;;
44862;SDS011;30597;49.628;10.850;2022-08-24T04:47:52;4.57;;;4.17;;
44862;SDS011;30597;49.628;10.850;2022-08-24T04:50:18;5.80;;;4.80;;
44862;SDS011;30597;49.628;10.850;2022-08-24T04:52:43;4.80;;;4.40;;
44862;SDS011;30597;49.628;10.850;2022-08-24T04:55:09;5.00;;;4.60;;
44862;SDS011;30597;49.628;10.850;2022-08-24T04:57:34;4.60;;;4.20;;
44862;SDS011;30597;49.628;10.850;2022-08-24T05:00:00;4.83;;;4.47;;
44862;SDS011;30597;49.628;10.850;2022-08-24T05:02:27;5.43;;;4.30;;
44862;SDS011;30597;49.628;10.850;2022-08-24T05:04:53;4.87;;;4.47;;
44862;SDS011;30597;49.628;10.850;2022-08-24T05:07:21;9.17;;;5.03;;
44862;SDS011;30597;49.628;10.850;2022-08-24T05:09:46;5.97;;;4.90;;
44862;SDS011;30597;49.628;10.850;2022-08-24T05:12:13;4.67;;;4.33;;
44862;SDS011;30597;49.628;10.850;2022-08-24T05:14:39;5.87;;;5.37;;
44862;SDS011;30597;49.628;10.850;2022-08-24T05:17:05;6.00;;;5.40;;
44862;SDS011;30597;49.628;10.850;2022-08-24T05:19:31;5.13;;;4.63;;
44862;SDS011;30597;49.628;10.850;2022-08-24T05:21:56;5.70;;;4.70;;
44862;SDS011;30597;49.628;10.850;2022-08-24T05:24:22;5.17;;;4.70;;
44862;SDS011;30597;49.628;10.850;2022-08-24T05:26:47;4.73;;;4.33;;
44862;SDS011;30597;49.628;10.850;2022-08-24T05:29:13;5.30;;;4.80;;
44862;SDS011;30597;49.628;10.850;2022-08-24T05:31:41;5.10;;;4.70;;
44862;SDS011;30597;49.628;10.850;2022-08-24T05:34:09;6.80;;;4.67;;
44862;SDS011;30597;49.628;10.850;2022-08-24T05:36:35;4.87;;;4.47;;
44862;SDS011;30597;49.628;10.850;2022-08-24T05:39:04;4.53;;;4.00;;
44862;SDS011;30597;49.628;10.850;2022-08-24T05:41:32;4.90;;;4.50;;
44862;SDS011;30597;49.628;10.850;2022-08-24T05:43:58;5.00;;;4.60;;
44862;SDS011;30597;49.628;10.850;2022-08-24T05:46:24;5.27;;;4.80;;
44862;SDS011;30597;49.628;10.850;2022-08-24T05:48:50;4.50;;;4.10;;
44862;SDS011;30597;49.628;10.850;2022-08-24T05:51:15;5.20;;;4.70;;
44862;SDS011;30597;49.628;10.850;2022-08-24T05:53:41;5.40;;;4.23;;
44862;SDS011;30597;49.628;10.850;2022-08-24T05:56:09;5.47;;;4.80;;
44862;SDS011;30597;49.628;10.850;2022-08-24T05:58:36;5.20;;;4.70;;
44862;SDS011;30597;49.628;10.850;2022-08-24T06:01:13;5.77;;;4.57;;
44862;SDS011;30597;49.628;10.850;2022-08-24T06:03:41;5.77;;;5.17;;
44862;SDS011;30597;49.628;10.850;2022-08-24T06:06:07;5.40;;;4.10;;
44862;SDS011;30597;49.628;10.850;2022-08-24T06:08:34;4.73;;;4.27;;
44862;SDS011;30597;49.628;10.850;2022-08-24T06:11:00;5.10;;;4.70;;
44862;SDS011;30597;49.628;10.850;2022-08-24T06:13:26;5.33;;;4.83;;
44862;SDS011;30597;49.628;10.850;2022-08-24T06:16:03;8.93;;;4.70;;
44862;SDS011;30597;49.628;10.850;2022-08-24T06:18:37;5.60;;;4.87;;
44862;SDS011;30597;49.628;10.850;2022-08-24T06:21:08;5.40;;;4.90;;
44862;SDS011;30597;49.628;10.850;2022-08-24T06:23:35;4.73;;;4.33;;
44862;SDS011;30597;49.628;10.850;2022-08-24T06:26:02;4.53;;;4.17;;
44862;SDS011;30597;49.628;10.850;2022-08-24T06:28:47;5.10;;;4.70;;
44862;SDS011;30597;49.628;10.850;2022-08-24T06:31:13;4.83;;;4.07;;
44862;SDS011;30597;49.628;10.850;2022-08-24T06:33:39;4.80;;;4.30;;
44862;SDS011;30597;49.628;10.850;2022-08-24T06:36:05;8.33;;;4.50;;
44862;SDS011;30597;49.628;10.850;2022-08-24T06:38:30;4.43;;;4.13;;
44862;SDS011;30597;49.628;10.850;2022-08-24T06:40:56;5.07;;;4.57;;
44862;SDS011;30597;49.628;10.850;2022-08-24T06:43:22;4.40;;;4.03;;
44862;SDS011;30597;49.628;10.850;2022-08-24T06:45:48;3.90;;;3.47;;
44862;SDS011;30597;49.628;10.850;2022-08-24T06:48:14;5.00;;;4.60;;
44862;SDS011;30597;49.628;10.850;2022-08-24T06:50:40;7.83;;;4.27;;
44862;SDS011;30597;49.628;10.850;2022-08-24T06:53:06;4.17;;;3.80;;
44862;SDS011;30597;49.628;10.850;2022-08-24T06:55:31;4.43;;;4.03;;
44862;SDS011;30597;49.628;10.850;2022-08-24T06:57:57;4.90;;;4.40;;
44862;SDS011;30597;49.628;10.850;2022-08-24T07:00:23;4.60;;;3.73;;
44862;SDS011;30597;49.628;10.850;2022-08-24T07:02:49;4.37;;;3.97;;
44862;SDS011;30597;49.628;10.850;2022-08-24T07:05:15;4.53;;;4.20;;
44862;SDS011;30597;49.628;10.850;2022-08-24T07:07:41;4.27;;;3.87;;
44862;SDS011;30597;49.628;10.850;2022-08-24T07:10:07;4.27;;;3.93;;
44862;SDS011;30597;49.628;10.850;2022-08-24T07:12:33;4.80;;;4.40;;
44862;SDS011;30597;49.628;10.850;2022-08-24T07:15:00;4.17;;;3.87;;
44862;SDS011;30597;49.628;10.850;2022-08-24T07:17:29;4.63;;;4.23;;
44862;SDS011;30597;49.628;10.850;2022-08-24T07:19:55;4.67;;;4.27;;
44862;SDS011;30597;49.628;10.850;2022-08-24T07:22:20;4.73;;;3.43;;
44862;SDS011;30597;49.628;10.850;2022-08-24T07:24:46;3.53;;;3.23;;
44862;SDS011;30597;49.628;10.850;2022-08-24T07:27:11;4.17;;;3.87;;
44862;SDS011;30597;49.628;10.850;2022-08-24T07:29:38;3.80;;;3.50;;
44862;SDS011;30597;49.628;10.850;2022-08-24T07:32:04;4.43;;;3.73;;
44862;SDS011;30597;49.628;10.850;2022-08-24T07:34:30;4.20;;;3.80;;
44862;SDS011;30597;49.628;10.850;2022-08-24T07:36:56;4.33;;;3.93;;
44862;SDS011;30597;49.628;10.850;2022-08-24T07:39:24;3.80;;;3.50;;
44862;SDS011;30597;49.628;10.850;2022-08-24T07:41:50;3.43;;;3.20;;
44862;SDS011;30597;49.628;10.850;2022-08-24T07:44:16;3.77;;;3.47;;
44862;SDS011;30597;49.628;10.850;2022-08-24T07:46:42;3.90;;;3.53;;
44862;SDS011;30597;49.628;10.850;2022-08-24T07:49:07;4.40;;;3.97;;
44862;SDS011;30597;49.628;10.850;2022-08-24T07:51:35;3.90;;;3.60;;
44862;SDS011;30597;49.628;10.850;2022-08-24T07:54:01;3.80;;;3.50;;
44862;SDS011;30597;49.628;10.850;2022-08-24T07:56:26;3.87;;;3.57;;
44862;SDS011;30597;49.628;10.850;2022-08-24T07:58:53;3.30;;;3.10;;
44862;SDS011;30597;49.628;10.850;2022-08-24T08:01:19;3.20;;;2.90;;
44862;SDS011;30597;49.628;10.850;2022-08-24T08:03:46;3.60;;;3.30;;
44862;SDS011;30597;49.628;10.850;2022-08-24T08:06:12;3.83;;;3.53;;
44862;SDS011;30597;49.628;10.850;2022-08-24T08:08:39;5.90;;;3.20;;
44862;SDS011;30597;49.628;10.850;2022-08-24T08:11:05;5.10;;;3.23;;
44862;SDS011;30597;49.628;10.850;2022-08-24T08:13:32;3.37;;;3.17;;
44862;SDS011;30597;49.628;10.850;2022-08-24T08:16:00;3.80;;;3.50;;
44862;SDS011;30597;49.628;10.850;2022-08-24T08:18:26;4.20;;;3.77;;
44862;SDS011;30597;49.628;10.850;2022-08-24T08:20:52;3.43;;;3.13;;
44862;SDS011;30597;49.628;10.850;2022-08-24T08:23:18;2.90;;;2.70;;
44862;SDS011;30597;49.628;10.850;2022-08-24T08:26:03;5.60;;;3.40;;
44862;SDS011;30597;49.628;10.850;2022-08-24T08:28:30;3.57;;;3.27;;
44862;SDS011;30597;49.628;10.850;2022-08-24T08:31:00;4.77;;;3.50;;
44862;SDS011;30597;49.628;10.850;2022-08-24T08:33:27;3.70;;;3.40;;
44862;SDS011;30597;49.628;10.850;2022-08-24T08:36:02;3.70;;;3.40;;
44862;SDS011;30597;49.628;10.850;2022-08-24T08:38:33;3.20;;;3.00;;
44862;SDS011;30597;49.628;10.850;2022-08-24T08:41:07;3.50;;;3.20;;
44862;SDS011;30597;49.628;10.850;2022-08-24T08:43:55;3.40;;;3.10;;
44862;SDS011;30597;49.628;10.850;2022-08-24T08:49:49;3.03;;;2.83;;
44862;SDS011;30597;49.628;10.850;2022-08-24T09:03:27;4.23;;;3.50;;
44862;SDS011;30597;49.628;10.850;2022-08-24T09:06:05;3.83;;;3.60;;
44862;SDS011;30597;49.628;10.850;2022-08-24T09:08:51;3.20;;;3.00;;
44862;SDS011;30597;49.628;10.850;2022-08-24T09:17:22;3.60;;;3.30;;
44862;SDS011;30597;49.628;10.850;2022-08-24T09:22:54;3.80;;;3.50;;
44862;SDS011;30597;49.628;10.850;2022-08-24T09:25:49;4.17;;;3.43;;
44862;SDS011;30597;49.628;10.850;2022-08-24T09:37:28;3.40;;;3.20;;
44862;SDS011;30597;49.628;10.850;2022-08-24T09:43:14;3.43;;;3.13;;
44862;SDS011;30597;49.628;10.850;2022-08-24T09:55:06;2.93;;;2.73;;
44862;SDS011;30597;49.628;10.850;2022-08-24T10:00:46;2.90;;;2.70;;
44862;SDS011;30597;49.628;10.850;2022-08-24T10:06:24;3.07;;;2.77;;
44862;SDS011;30597;49.628;10.850;2022-08-24T10:09:27;4.07;;;3.77;;
44862;SDS011;30597;49.628;10.850;2022-08-24T10:15:03;3.00;;;2.80;;
44862;SDS011;30597;49.628;10.850;2022-08-24T10:20:25;3.00;;;2.80;;
44862;SDS011;30597;49.628;10.850;2022-08-24T10:26:03;2.97;;;2.77;;
44862;SDS011;30597;49.628;10.850;2022-08-24T10:45:50;2.73;;;2.53;;
44862;SDS011;30597;49.628;10.850;2022-08-24T10:54:21;2.90;;;2.70;;
44862;SDS011;30597;49.628;10.850;2022-08-24T10:59:38;3.30;;;3.10;;
44862;SDS011;30597;49.628;10.850;2022-08-24T11:02:31;2.87;;;2.67;;
44862;SDS011;30597;49.628;10.850;2022-08-24T11:05:00;3.30;;;3.00;;
44862;SDS011;30597;49.628;10.850;2022-08-24T11:07:37;2.80;;;2.57;;
44862;SDS011;30597;49.628;10.850;2022-08-24T11:10:27;3.23;;;2.93;;
44862;SDS011;30597;49.628;10.850;2022-08-24T11:12:54;3.23;;;3.03;;
44862;SDS011;30597;49.628;10.850;2022-08-24T11:15:22;3.17;;;2.90;;
44862;SDS011;30597;49.628;10.850;2022-08-24T11:18:01;3.03;;;2.83;;
44862;SDS011;30597;49.628;10.850;2022-08-24T11:25:43;3.10;;;2.90;;
44862;SDS011;30597;49.628;10.850;2022-08-24T11:29:00;3.30;;;3.00;;
44862;SDS011;30597;49.628;10.850;2022-08-24T11:31:38;3.00;;;2.80;;
44862;SDS011;30597;49.628;10.850;2022-08-24T11:34:06;2.90;;;2.60;;
44862;SDS011;30597;49.628;10.850;2022-08-24T11:36:39;2.80;;;2.60;;
44862;SDS011;30597;49.628;10.850;2022-08-24T11:41:47;2.90;;;2.70;;
44862;SDS011;30597;49.628;10.850;2022-08-24T11:47:00;2.63;;;2.43;;
44862;SDS011;30597;49.628;10.850;2022-08-24T11:49:46;3.47;;;3.17;;
44862;SDS011;30597;49.628;10.850;2022-08-24T11:52:32;3.20;;;3.00;;
44862;SDS011;30597;49.628;10.850;2022-08-24T11:55:21;2.83;;;2.63;;
44862;SDS011;30597;49.628;10.850;2022-08-24T12:00:22;3.10;;;2.90;;
44862;SDS011;30597;49.628;10.850;2022-08-24T12:05:29;2.63;;;2.43;;
44862;SDS011;30597;49.628;10.850;2022-08-24T12:11:07;2.80;;;2.60;;
44862;SDS011;30597;49.628;10.850;2022-08-24T12:13:56;2.90;;;2.70;;
44862;SDS011;30597;49.628;10.850;2022-08-24T12:16:35;3.20;;;3.00;;
44862;SDS011;30597;49.628;10.850;2022-08-24T12:19:29;3.10;;;2.80;;
44862;SDS011;30597;49.628;10.850;2022-08-24T12:21:58;2.77;;;2.57;;
44862;SDS011;30597;49.628;10.850;2022-08-24T12:24:32;2.77;;;2.57;;
44862;SDS011;30597;49.628;10.850;2022-08-24T12:27:05;2.40;;;2.27;;
44862;SDS011;30597;49.628;10.850;2022-08-24T12:29:38;3.20;;;2.90;;
44862;SDS011;30597;49.628;10.850;2022-08-24T12:32:14;2.97;;;2.70;;
44862;SDS011;30597;49.628;10.850;2022-08-24T12:34:47;3.80;;;3.10;;
44862;SDS011;30597;49.628;10.850;2022-08-24T12:37:15;2.97;;;2.77;;
44862;SDS011;30597;49.628;10.850;2022-08-24T12:40:19;2.77;;;2.57;;
44862;SDS011;30597;49.628;10.850;2022-08-24T12:42:50;2.70;;;2.50;;
44862;SDS011;30597;49.628;10.850;2022-08-24T12:45:23;3.33;;;3.13;;
44862;SDS011;30597;49.628;10.850;2022-08-24T12:48:02;2.73;;;2.53;;
44862;SDS011;30597;49.628;10.850;2022-08-24T12:51:01;2.80;;;2.60;;
44862;SDS011;30597;49.628;10.850;2022-08-24T13:01:10;2.80;;;2.60;;
44862;SDS011;30597;49.628;10.850;2022-08-24T13:03:39;3.30;;;2.47;;
44862;SDS011;30597;49.628;10.850;2022-08-24T13:06:10;2.73;;;2.53;;
44862;SDS011;30597;49.628;10.850;2022-08-24T13:08:44;2.70;;;2.50;;
44862;SDS011;30597;49.628;10.850;2022-08-24T13:24:44;2.53;;;2.30;;
44862;SDS011;30597;49.628;10.850;2022-08-24T13:30:06;2.57;;;2.37;;
44862;SDS011;30597;49.628;10.850;2022-08-24T13:32:43;2.33;;;2.20;;
44862;SDS011;30597;49.628;10.850;2022-08-24T13:46:18;3.00;;;2.80;;
44862;SDS011;30597;49.628;10.850;2022-08-24T13:59:42;2.93;;;2.73;;
44862;SDS011;30597;49.628;10.850;2022-08-24T14:02:29;2.77;;;2.57;;
44862;SDS011;30597;49.628;10.850;2022-08-24T14:07:48;2.80;;;2.60;;
44862;SDS011;30597;49.628;10.850;2022-08-24T14:13:47;2.60;;;2.40;;
44862;SDS011;30597;49.628;10.850;2022-08-24T14:16:35;3.60;;;3.40;;
44862;SDS011;30597;49.628;10.850;2022-08-24T14:19:29;2.87;;;2.67;;
44862;SDS011;30597;49.628;10.850;2022-08-24T14:25:00;3.10;;;2.90;;
44862;SDS011;30597;49.628;10.850;2022-08-24T14:27:44;2.77;;;2.57;;
44862;SDS011;30597;49.628;10.850;2022-08-24T14:32:47;2.23;;;2.10;;
44862;SDS011;30597;49.628;10.850;2022-08-24T14:57:25;2.03;;;1.93;;
44862;SDS011;30597;49.628;10.850;2022-08-24T15:02:45;2.40;;;2.20;;
44862;SDS011;30597;49.628;10.850;2022-08-24T15:08:06;1.90;;;1.80;;
44862;SDS011;30597;49.628;10.850;2022-08-24T15:13:11;2.80;;;2.60;;
44862;SDS011;30597;49.628;10.850;2022-08-24T15:15:50;2.20;;;2.00;;
44862;SDS011;30597;49.628;10.850;2022-08-24T15:29:34;2.47;;;2.27;;
44862;SDS011;30597;49.628;10.850;2022-08-24T15:32:10;3.10;;;2.80;;
44862;SDS011;30597;49.628;10.850;2022-08-24T15:34:39;3.00;;;2.70;;
44862;SDS011;30597;49.628;10.850;2022-08-24T15:37:09;3.33;;;3.03;;
44862;SDS011;30597;49.628;10.850;2022-08-24T15:39:56;2.67;;;2.43;;
44862;SDS011;30597;49.628;10.850;2022-08-24T15:42:22;2.87;;;2.63;;
44862;SDS011;30597;49.628;10.850;2022-08-24T15:44:48;2.87;;;2.37;;
44862;SDS011;30597;49.628;10.850;2022-08-24T15:47:25;2.93;;;2.67;;
44862;SDS011;30597;49.628;10.850;2022-08-24T15:52:42;2.90;;;2.70;;
44862;SDS011;30597;49.628;10.850;2022-08-24T15:55:14;2.70;;;2.40;;
44862;SDS011;30597;49.628;10.850;2022-08-24T15:58:12;2.97;;;2.77;;
44862;SDS011;30597;49.628;10.850;2022-08-24T16:00:46;2.70;;;2.50;;
44862;SDS011;30597;49.628;10.850;2022-08-24T16:07:04;3.20;;;2.83;;
44862;SDS011;30597;49.628;10.850;2022-08-24T16:14:55;3.53;;;3.10;;
44862;SDS011;30597;49.628;10.850;2022-08-24T16:17:45;2.97;;;2.77;;
44862;SDS011;30597;49.628;10.850;2022-08-24T16:20:27;3.40;;;3.10;;
44862;SDS011;30597;49.628;10.850;2022-08-24T16:22:57;4.90;;;3.00;;
44862;SDS011;30597;49.628;10.850;2022-08-24T16:25:32;2.83;;;2.63;;
44862;SDS011;30597;49.628;10.850;2022-08-24T16:36:03;3.10;;;2.90;;
44862;SDS011;30597;49.628;10.850;2022-08-24T16:38:30;3.97;;;3.33;;
44862;SDS011;30597;49.628;10.850;2022-08-24T16:40:58;3.30;;;3.00;;
44862;SDS011;30597;49.628;10.850;2022-08-24T16:43:30;3.70;;;3.40;;
44862;SDS011;30597;49.628;10.850;2022-08-24T16:45:56;9.90;;;4.30;;
44862;SDS011;30597;49.628;10.850;2022-08-24T16:48:24;11.93;;;4.97;;
44862;SDS011;30597;49.628;10.850;2022-08-24T16:50:49;4.80;;;4.10;;
44862;SDS011;30597;49.628;10.850;2022-08-24T16:53:15;6.43;;;4.63;;
44862;SDS011;30597;49.628;10.850;2022-08-24T16:55:40;13.73;;;4.30;;
44862;SDS011;30597;49.628;10.850;2022-08-24T16:58:06;7.80;;;5.30;;
44862;SDS011;30597;49.628;10.850;2022-08-24T17:00:31;5.50;;;4.63;;
44862;SDS011;30597;49.628;10.850;2022-08-24T17:02:57;5.23;;;4.70;;
44862;SDS011;30597;49.628;10.850;2022-08-24T17:05:23;5.43;;;4.60;;
44862;SDS011;30597;49.628;10.850;2022-08-24T17:07:49;9.80;;;4.70;;
44862;SDS011;30597;49.628;10.850;2022-08-24T17:10:16;6.13;;;4.60;;
44862;SDS011;30597;49.628;10.850;2022-08-24T17:12:43;7.53;;;5.70;;
44862;SDS011;30597;49.628;10.850;2022-08-24T17:15:10;7.87;;;5.23;;
44862;SDS011;30597;49.628;10.850;2022-08-24T17:17:37;6.43;;;5.10;;
44862;SDS011;30597;49.628;10.850;2022-08-24T17:20:05;10.00;;;5.30;;
44862;SDS011;30597;49.628;10.850;2022-08-24T17:22:36;8.33;;;5.40;;
44862;SDS011;30597;49.628;10.850;2022-08-24T17:25:02;5.60;;;4.90;;
44862;SDS011;30597;49.628;10.850;2022-08-24T17:27:30;5.50;;;5.00;;
44862;SDS011;30597;49.628;10.850;2022-08-24T17:29:58;5.90;;;5.40;;
44862;SDS011;30597;49.628;10.850;2022-08-24T17:32:25;6.33;;;5.17;;
44862;SDS011;30597;49.628;10.850;2022-08-24T17:34:51;5.70;;;5.20;;
44862;SDS011;30597;49.628;10.850;2022-08-24T17:37:16;7.27;;;4.97;;
44862;SDS011;30597;49.628;10.850;2022-08-24T17:39:42;5.37;;;4.87;;
44862;SDS011;30597;49.628;10.850;2022-08-24T17:42:08;5.70;;;5.10;;
44862;SDS011;30597;49.628;10.850;2022-08-24T17:44:34;5.83;;;5.30;;
44862;SDS011;30597;49.628;10.850;2022-08-24T17:47:01;5.80;;;4.93;;
44862;SDS011;30597;49.628;10.850;2022-08-24T17:49:29;6.37;;;5.77;;
44862;SDS011;30597;49.628;10.850;2022-08-24T17:51:56;6.27;;;5.57;;
44862;SDS011;30597;49.628;10.850;2022-08-24T17:54:22;7.17;;;6.07;;
44862;SDS011;30597;49.628;10.850;2022-08-24T17:56:50;5.77;;;5.20;;
44862;SDS011;30597;49.628;10.850;2022-08-24T17:59:16;5.83;;;5.23;;
44862;SDS011;30597;49.628;10.850;2022-08-24T18:01:50;6.10;;;5.50;;
44862;SDS011;30597;49.628;10.850;2022-08-24T18:04:18;5.67;;;5.17;;
44862;SDS011;30597;49.628;10.850;2022-08-24T18:06:45;5.67;;;5.17;;
44862;SDS011;30597;49.628;10.850;2022-08-24T18:09:25;5.93;;;5.33;;
44862;SDS011;30597;49.628;10.850;2022-08-24T18:11:56;6.40;;;5.80;;
44862;SDS011;30597;49.628;10.850;2022-08-24T18:14:24;6.10;;;5.50;;
44862;SDS011;30597;49.628;10.850;2022-08-24T18:16:50;6.20;;;5.23;;
44862;SDS011;30597;49.628;10.850;2022-08-24T18:19:17;7.03;;;5.50;;
44862;SDS011;30597;49.628;10.850;2022-08-24T18:21:43;13.00;;;5.60;;
44862;SDS011;30597;49.628;10.850;2022-08-24T18:24:09;7.67;;;5.90;;
44862;SDS011;30597;49.628;10.850;2022-08-24T18:26:34;8.00;;;5.90;;
44862;SDS011;30597;49.628;10.850;2022-08-24T18:29:05;7.43;;;6.20;;
44862;SDS011;30597;49.628;10.850;2022-08-24T18:31:39;8.33;;;6.00;;
44862;SDS011;30597;49.628;10.850;2022-08-24T18:34:05;7.90;;;6.07;;